createdAt,value
2018-08-28T00:00:18.818Z,2.30
2018-08-28T00:02:46.983Z,2.40
2018-08-28T00:05:15.137Z,2.20
2018-08-28T00:07:43.323Z,5.80
2018-08-28T00:10:11.479Z,4.85
2018-08-28T00:12:39.674Z,3.10
2018-08-28T00:15:07.830Z,5.58
2018-08-28T00:17:36.031Z,3.30
2018-08-28T00:20:04.195Z,3.60
2018-08-28T00:22:32.370Z,5.55
2018-08-28T00:25:00.527Z,2.60
2018-08-28T00:27:28.734Z,2.12
2018-08-28T00:29:57.218Z,2.12
2018-08-28T00:32:25.436Z,2.77
2018-08-28T00:34:53.625Z,2.30
2018-08-28T00:37:21.814Z,5.10
2018-08-28T00:39:49.995Z,1.80
2018-08-28T00:42:18.186Z,3.80
2018-08-28T00:44:46.398Z,3.27
2018-08-28T00:47:14.601Z,2.33
2018-08-28T00:49:42.785Z,2.43
2018-08-28T00:52:10.964Z,5.08
2018-08-28T00:54:39.158Z,2.52
2018-08-28T00:57:07.354Z,3.50
2018-08-28T00:59:35.539Z,2.60
2018-08-28T01:02:03.723Z,3.10
2018-08-28T01:04:31.905Z,4.10
2018-08-28T01:07:00.110Z,2.60
2018-08-28T01:09:28.310Z,2.60
2018-08-28T01:11:56.494Z,2.30
2018-08-28T01:14:24.658Z,2.10
2018-08-28T01:16:52.822Z,3.13
2018-08-28T01:19:21.002Z,2.10
2018-08-28T01:21:49.166Z,3.43
2018-08-28T01:24:17.350Z,2.63
2018-08-28T01:26:45.522Z,15.43
2018-08-28T01:29:13.706Z,2.30
2018-08-28T01:31:41.883Z,2.67
2018-08-28T01:34:10.059Z,2.90
2018-08-28T01:36:38.225Z,2.53
2018-08-28T01:39:06.931Z,3.07
2018-08-28T01:41:35.110Z,4.07
2018-08-28T01:44:03.294Z,2.87
2018-08-28T01:46:31.470Z,5.77
2018-08-28T01:48:59.649Z,2.60
2018-08-28T01:51:27.815Z,3.67
2018-08-28T01:53:55.990Z,4.23
2018-08-28T01:56:24.162Z,3.80
2018-08-28T01:58:52.342Z,2.93
2018-08-28T02:01:20.517Z,11.43
2018-08-28T02:03:48.689Z,2.50
2018-08-28T02:06:16.866Z,2.10
2018-08-28T02:08:45.041Z,3.70
2018-08-28T02:11:13.210Z,6.83
2018-08-28T02:13:41.381Z,2.90
2018-08-28T02:16:09.565Z,3.43
2018-08-28T02:18:37.734Z,2.67
2018-08-28T02:21:05.915Z,6.43
2018-08-28T02:23:34.086Z,2.60
2018-08-28T02:26:02.250Z,3.03
2018-08-28T02:28:30.442Z,2.97
2018-08-28T02:30:58.614Z,2.73
2018-08-28T02:33:26.832Z,3.43
2018-08-28T02:35:54.965Z,4.17
2018-08-28T02:38:23.142Z,3.30
2018-08-28T02:40:51.313Z,8.97
2018-08-28T02:43:19.485Z,3.47
2018-08-28T02:45:47.658Z,2.90
2018-08-28T02:48:15.833Z,3.90
2018-08-28T02:50:44.006Z,2.80
2018-08-28T02:53:12.193Z,2.63
2018-08-28T02:55:40.363Z,3.40
2018-08-28T02:58:08.568Z,5.03
2018-08-28T03:00:36.738Z,3.60
2018-08-28T03:03:04.944Z,2.80
2018-08-28T03:05:33.111Z,2.60
2018-08-28T03:08:01.280Z,2.20
2018-08-28T03:10:29.459Z,6.77
2018-08-28T03:12:57.638Z,4.63
2018-08-28T03:15:25.895Z,10.33
2018-08-28T03:17:54.014Z,2.77
2018-08-28T03:20:22.197Z,3.80
2018-08-28T03:22:50.370Z,5.17
2018-08-28T03:25:18.553Z,2.30
2018-08-28T03:27:46.733Z,2.60
2018-08-28T03:30:14.919Z,10.60
2018-08-28T03:32:43.086Z,2.40
2018-08-28T03:35:11.266Z,3.40
2018-08-28T03:37:39.438Z,2.63
2018-08-28T03:40:07.626Z,4.80
2018-08-28T03:42:35.795Z,2.90
2018-08-28T03:45:04.231Z,2.43
2018-08-28T03:47:32.614Z,2.87
2018-08-28T03:50:00.792Z,2.60
2018-08-28T03:52:28.973Z,4.80
2018-08-28T03:54:57.158Z,8.10
2018-08-28T03:57:25.334Z,2.67
2018-08-28T03:59:53.518Z,2.57
2018-08-28T04:02:21.699Z,4.67
2018-08-28T04:04:49.865Z,3.67
2018-08-28T04:07:18.036Z,8.53
2018-08-28T04:09:46.217Z,2.30
2018-08-28T04:12:14.393Z,3.93
2018-08-28T04:14:42.575Z,2.93
2018-08-28T04:17:10.783Z,3.70
2018-08-28T04:19:38.935Z,2.87
2018-08-28T04:22:07.111Z,6.10
2018-08-28T04:24:35.293Z,2.87
2018-08-28T04:27:03.485Z,2.57
2018-08-28T04:29:31.670Z,2.70
2018-08-28T04:31:59.845Z,3.73
2018-08-28T04:34:28.038Z,3.50
2018-08-28T04:36:56.210Z,3.60
2018-08-28T04:39:24.402Z,2.60
2018-08-28T04:41:52.606Z,3.10
2018-08-28T04:44:20.754Z,6.10
2018-08-28T04:46:48.923Z,2.20
2018-08-28T04:49:17.100Z,3.43
2018-08-28T04:51:45.283Z,2.63
2018-08-28T04:54:13.505Z,5.33
2018-08-28T04:56:41.634Z,3.13
2018-08-28T04:59:09.813Z,4.17
2018-08-28T05:01:37.998Z,2.70
2018-08-28T05:04:06.175Z,3.13
2018-08-28T05:06:34.354Z,3.87
2018-08-28T05:09:02.530Z,3.10
2018-08-28T05:11:30.711Z,2.50
2018-08-28T05:13:58.889Z,3.23
2018-08-28T05:16:27.067Z,4.27
2018-08-28T05:18:55.240Z,2.60
2018-08-28T05:21:23.423Z,2.83
2018-08-28T05:23:51.595Z,5.50
2018-08-28T05:26:19.769Z,2.80
2018-08-28T05:28:47.966Z,2.80
2018-08-28T05:31:16.129Z,2.67
2018-08-28T05:33:44.293Z,3.30
2018-08-28T05:36:12.461Z,2.67
2018-08-28T05:38:40.642Z,3.47
2018-08-28T05:41:08.823Z,3.10
2018-08-28T05:43:36.990Z,2.60
2018-08-28T05:46:05.174Z,4.77
2018-08-28T05:48:33.342Z,2.17
2018-08-28T05:51:01.522Z,3.23
2018-08-28T05:53:29.697Z,4.00
2018-08-28T05:55:57.929Z,3.53
2018-08-28T05:58:26.050Z,2.63
2018-08-28T06:00:54.226Z,2.63
2018-08-28T06:03:22.558Z,3.20
2018-08-28T06:05:50.582Z,5.23
2018-08-28T06:08:19.018Z,8.10
2018-08-28T06:10:47.229Z,3.03
2018-08-28T06:13:15.400Z,3.10
2018-08-28T06:15:43.599Z,2.90
2018-08-28T06:18:11.771Z,2.63
2018-08-28T06:20:39.963Z,2.63
2018-08-28T06:23:08.219Z,5.40
2018-08-28T06:25:36.319Z,3.40
2018-08-28T06:28:04.570Z,4.93
2018-08-28T06:30:32.751Z,4.83
2018-08-28T06:33:00.919Z,3.97
2018-08-28T06:35:29.109Z,5.90
2018-08-28T06:37:57.295Z,3.30
2018-08-28T06:40:25.467Z,5.70
2018-08-28T06:42:53.641Z,3.83
2018-08-28T06:45:21.815Z,3.90
2018-08-28T06:47:49.993Z,8.20
2018-08-28T06:50:18.170Z,3.23
2018-08-28T06:52:46.348Z,3.33
2018-08-28T06:55:14.527Z,10.83
2018-08-28T06:57:42.731Z,8.83
2018-08-28T07:00:10.909Z,10.40
2018-08-28T07:02:39.090Z,8.27
2018-08-28T07:05:07.275Z,7.17
2018-08-28T07:07:35.466Z,9.47
2018-08-28T07:10:03.710Z,10.70
2018-08-28T07:12:31.837Z,10.17
2018-08-28T07:15:00.015Z,11.70
2018-08-28T07:17:28.293Z,12.73
2018-08-28T07:19:56.467Z,10.80
2018-08-28T07:22:25.437Z,11.73
2018-08-28T07:24:53.618Z,16.23
2018-08-28T07:27:21.812Z,10.23
2018-08-28T07:29:49.978Z,14.10
2018-08-28T07:32:18.206Z,14.70
2018-08-28T07:34:46.378Z,11.33
2018-08-28T07:37:14.580Z,12.90
2018-08-28T07:39:42.726Z,12.63
2018-08-28T07:42:11.078Z,12.60
2018-08-28T07:44:39.256Z,11.60
2018-08-28T07:47:07.442Z,14.57
2018-08-28T07:49:35.621Z,10.70
2018-08-28T07:52:03.806Z,20.93
2018-08-28T07:54:31.983Z,13.20
2018-08-28T07:57:00.167Z,15.00
2018-08-28T07:59:28.354Z,12.50
2018-08-28T08:01:56.538Z,8.20
2018-08-28T08:04:24.710Z,9.37
2018-08-28T08:06:52.891Z,9.30
2018-08-28T08:09:21.069Z,10.63
2018-08-28T08:11:49.261Z,12.17
2018-08-28T08:14:17.450Z,11.40
2018-08-28T08:16:45.655Z,11.18
2018-08-28T08:19:13.845Z,10.08
2018-08-28T08:21:42.034Z,10.50
2018-08-28T08:24:10.236Z,12.70
2018-08-28T08:26:38.457Z,10.40
2018-08-28T08:29:06.913Z,11.28
2018-08-28T08:31:35.114Z,8.60
2018-08-28T08:34:03.318Z,9.18
2018-08-28T08:36:31.528Z,9.28
2018-08-28T08:38:59.726Z,10.25
2018-08-28T08:41:27.919Z,8.48
2018-08-28T08:43:56.123Z,7.70
2018-08-28T08:46:24.298Z,6.97
2018-08-28T08:48:52.478Z,7.45
2018-08-28T08:51:20.690Z,9.73
2018-08-28T08:53:49.005Z,9.18
2018-08-28T08:56:17.204Z,8.95
2018-08-28T08:58:45.385Z,8.78
2018-08-28T09:01:13.564Z,9.20
2018-08-28T09:03:41.762Z,9.13
2018-08-28T09:06:10.036Z,10.70
2018-08-28T09:08:38.162Z,10.18
2018-08-28T09:11:06.355Z,7.55
2018-08-28T09:13:34.636Z,7.37
2018-08-28T09:16:02.747Z,8.78
2018-08-28T09:18:30.935Z,12.65
2018-08-28T09:20:59.110Z,8.50
2018-08-28T09:23:27.314Z,8.90
2018-08-28T09:25:55.509Z,11.40
2018-08-28T09:28:23.703Z,11.85
2018-08-28T09:30:51.902Z,9.98
2018-08-28T09:33:20.094Z,10.90
2018-08-28T09:35:48.274Z,9.93
2018-08-28T09:40:14.329Z,9.80
2018-08-28T09:42:42.613Z,11.57
2018-08-28T09:45:10.888Z,10.50
2018-08-28T09:47:39.141Z,9.35
2018-08-28T09:50:07.462Z,11.07
2018-08-28T09:52:35.705Z,12.37
2018-08-28T09:55:04.017Z,11.10
2018-08-28T09:57:32.292Z,11.57
2018-08-28T10:00:00.785Z,11.60
2018-08-28T10:02:29.081Z,11.75
2018-08-28T10:04:57.483Z,11.88
2018-08-28T10:07:25.633Z,12.47
2018-08-28T10:09:53.889Z,12.63
2018-08-28T10:12:22.132Z,10.60
2018-08-28T10:14:50.432Z,10.40
2018-08-28T10:17:18.759Z,11.38
2018-08-28T10:19:46.994Z,10.50
2018-08-28T10:22:15.241Z,8.40
2018-08-28T10:24:43.492Z,8.83
2018-08-28T10:27:11.765Z,9.03
2018-08-28T10:29:40.095Z,10.53
2018-08-28T10:32:08.320Z,10.90
2018-08-28T10:34:36.605Z,11.93
2018-08-28T10:37:05.062Z,9.50
2018-08-28T10:39:33.324Z,12.10
2018-08-28T10:42:01.601Z,10.75
2018-08-28T10:44:29.877Z,11.03
2018-08-28T10:46:58.190Z,12.85
2018-08-28T10:49:26.405Z,9.97
2018-08-28T10:51:54.647Z,11.20
2018-08-28T10:54:22.928Z,15.93
2018-08-28T10:56:51.188Z,11.68
2018-08-28T10:59:19.465Z,12.73
2018-08-28T11:01:47.735Z,10.83
2018-08-28T11:04:16.007Z,11.78
2018-08-28T11:06:44.279Z,11.93
2018-08-28T11:09:12.548Z,14.75
2018-08-28T11:11:40.792Z,13.43
2018-08-28T11:14:09.056Z,13.67
2018-08-28T11:16:37.317Z,13.30
2018-08-28T11:19:05.705Z,11.83
2018-08-28T11:21:33.995Z,12.00
2018-08-28T11:24:02.274Z,12.10
2018-08-28T11:26:30.537Z,13.23
2018-08-28T11:28:58.808Z,10.50
2018-08-28T11:31:27.198Z,13.53
2018-08-28T11:33:55.568Z,13.88
2018-08-28T11:36:23.857Z,14.25
2018-08-28T11:38:52.116Z,14.13
2018-08-28T11:41:20.452Z,15.43
2018-08-28T11:43:48.704Z,14.95
2018-08-28T11:46:16.985Z,13.50
2018-08-28T11:48:45.258Z,14.78
2018-08-28T11:51:13.524Z,18.95
2018-08-28T11:53:41.801Z,13.58
2018-08-28T11:56:10.117Z,15.38
2018-08-28T11:58:38.424Z,13.72
2018-08-28T12:01:06.712Z,15.05
2018-08-28T12:03:34.993Z,12.80
2018-08-28T12:06:03.252Z,13.32
2018-08-28T12:08:31.529Z,11.48
2018-08-28T12:10:59.809Z,12.47
2018-08-28T12:13:28.085Z,14.90
2018-08-28T12:15:56.376Z,13.90
2018-08-28T12:18:24.655Z,12.37
2018-08-28T12:20:53.045Z,12.82
2018-08-28T12:23:21.205Z,11.60
2018-08-28T12:25:49.485Z,12.28
2018-08-28T12:28:17.768Z,12.58
2018-08-28T12:30:46.037Z,11.45
2018-08-28T12:33:14.321Z,14.58
2018-08-28T12:35:42.673Z,20.17
2018-08-28T12:38:10.940Z,13.78
2018-08-28T12:40:39.259Z,14.55
2018-08-28T12:43:07.551Z,12.37
2018-08-28T12:45:35.816Z,12.95
2018-08-28T12:48:04.084Z,11.65
2018-08-28T12:50:32.355Z,13.35
2018-08-28T12:53:00.625Z,12.60
2018-08-28T12:55:28.901Z,11.70
2018-08-28T12:57:57.165Z,14.20
2018-08-28T13:00:25.530Z,13.95
2018-08-28T13:02:53.720Z,11.18
2018-08-28T13:05:21.984Z,13.08
2018-08-28T13:07:50.244Z,13.43
2018-08-28T13:10:18.530Z,15.10
2018-08-28T13:12:46.814Z,11.83
2018-08-28T13:15:15.829Z,13.20
2018-08-28T13:17:44.197Z,12.45
2018-08-28T13:20:12.481Z,12.40
2018-08-28T13:22:40.763Z,12.90
2018-08-28T13:25:09.735Z,16.45
2018-08-28T13:27:38.152Z,15.15
2018-08-28T13:30:06.457Z,13.50
2018-08-28T13:32:34.761Z,16.48
2018-08-28T13:35:03.042Z,17.47
2018-08-28T13:37:31.379Z,13.50
2018-08-28T13:39:59.643Z,15.10
2018-08-28T13:42:27.948Z,15.80
2018-08-28T13:44:56.205Z,13.48
2018-08-28T13:47:24.493Z,15.40
2018-08-28T13:49:52.745Z,13.65
2018-08-28T13:52:21.033Z,17.07
2018-08-28T13:54:49.368Z,13.72
2018-08-28T13:57:17.651Z,12.30
2018-08-28T13:59:45.979Z,13.65
2018-08-28T14:02:14.234Z,10.43
2018-08-28T14:04:42.557Z,15.10
2018-08-28T14:07:10.940Z,13.20
2018-08-28T14:09:39.203Z,12.58
2018-08-28T14:12:07.490Z,13.58
2018-08-28T14:14:35.761Z,13.22
2018-08-28T14:17:04.047Z,16.30
2018-08-28T14:19:32.306Z,12.70
2018-08-28T14:22:00.581Z,15.88
2018-08-28T14:24:28.958Z,13.60
2018-08-28T14:26:57.177Z,14.80
2018-08-28T14:29:25.566Z,14.28
2018-08-28T14:31:53.834Z,14.98
2018-08-28T14:34:22.100Z,16.50
2018-08-28T14:36:50.444Z,14.05
2018-08-28T14:39:18.773Z,13.07
2018-08-28T14:41:47.131Z,14.58
2018-08-28T14:44:15.396Z,15.95
2018-08-28T14:46:43.660Z,14.00
2018-08-28T14:49:11.909Z,14.20
2018-08-28T14:51:40.198Z,16.70
2018-08-28T14:54:08.460Z,17.20
2018-08-28T14:59:04.353Z,15.93
2018-08-28T15:01:32.604Z,14.33
2018-08-28T15:04:00.870Z,14.10
2018-08-28T15:06:29.121Z,12.80
2018-08-28T15:11:24.941Z,14.83
2018-08-28T15:13:53.200Z,17.43
2018-08-28T15:16:21.471Z,13.70
2018-08-28T15:55:43.436Z,17.63
2018-08-28T15:58:11.728Z,19.37
2018-08-28T16:00:40.103Z,17.23
2018-08-28T16:03:08.444Z,19.42
2018-08-28T16:05:36.766Z,17.12
2018-08-28T16:08:05.378Z,21.23
2018-08-28T16:10:33.644Z,15.25
2018-08-28T16:13:01.978Z,17.65
2018-08-28T16:15:30.261Z,16.37
2018-08-28T16:17:58.541Z,15.85
2018-08-28T16:20:26.855Z,15.38
2018-08-28T16:23:03.909Z,17.32
2018-08-28T16:25:32.194Z,16.50
2018-08-28T16:28:00.465Z,17.00
2018-08-28T16:30:28.977Z,14.50
2018-08-28T16:32:57.301Z,13.25
2018-08-28T16:35:25.620Z,12.73
2018-08-28T16:37:53.885Z,16.95
2018-08-28T16:40:22.201Z,15.10
2018-08-28T16:42:50.658Z,13.60
2018-08-28T16:45:18.782Z,17.75
2018-08-28T16:47:47.089Z,17.15
2018-08-28T16:50:15.387Z,16.77
2018-08-28T16:52:43.639Z,14.13
2018-08-28T16:55:11.897Z,17.30
2018-08-28T16:57:40.168Z,13.05
2018-08-28T17:00:08.467Z,14.83
2018-08-28T17:02:36.747Z,19.17
2018-08-28T17:05:05.105Z,21.77
2018-08-28T17:07:33.382Z,17.57
2018-08-28T17:10:01.659Z,16.60
2018-08-28T17:12:29.938Z,22.90
2018-08-28T17:14:58.254Z,15.68
2018-08-28T17:17:26.489Z,13.38
2018-08-28T17:19:54.763Z,14.30
2018-08-28T17:22:23.021Z,15.48
2018-08-28T17:24:51.380Z,13.83
2018-08-28T17:27:19.681Z,13.85
2018-08-28T17:29:47.949Z,14.18
2018-08-28T17:32:16.229Z,14.33
2018-08-28T17:34:44.552Z,14.23
2018-08-28T17:37:12.957Z,12.30
2018-08-28T17:39:41.201Z,18.98
2018-08-28T17:42:09.481Z,16.85
2018-08-28T17:44:37.749Z,16.10
2018-08-28T17:47:06.037Z,14.78
2018-08-28T17:49:34.288Z,17.15
2018-08-28T17:52:02.574Z,15.70
2018-08-28T17:54:30.861Z,14.45
2018-08-28T17:56:59.171Z,15.05
2018-08-28T17:59:27.433Z,18.47
2018-08-28T18:01:55.725Z,15.68
2018-08-28T18:04:24.007Z,13.70
2018-08-28T18:06:52.294Z,17.80
2018-08-28T18:09:20.582Z,13.13
2018-08-28T18:11:48.854Z,15.65
2018-08-28T18:14:17.120Z,15.93
2018-08-28T18:16:45.398Z,15.75
2018-08-28T18:19:13.681Z,15.13
2018-08-28T18:21:42.035Z,14.53
2018-08-28T18:24:10.300Z,13.40
2018-08-28T18:26:38.570Z,19.65
2018-08-28T18:29:06.871Z,14.30
2018-08-28T18:31:35.181Z,13.10
2018-08-28T18:34:03.432Z,14.20
2018-08-28T18:36:31.727Z,19.15
2018-08-28T18:38:59.994Z,15.95
2018-08-28T18:41:28.286Z,17.90
2018-08-28T18:43:56.541Z,16.47
2018-08-28T18:46:24.837Z,16.17
2018-08-28T18:48:53.102Z,15.00
2018-08-28T18:51:21.397Z,15.70
2018-08-28T18:53:49.675Z,17.87
2018-08-28T18:56:18.171Z,13.72
2018-08-28T18:58:46.234Z,21.73
2018-08-28T19:01:14.521Z,11.73
2018-08-28T19:03:42.826Z,16.42
2018-08-28T19:06:11.132Z,19.87
2018-08-28T19:08:39.453Z,17.50
2018-08-28T19:11:07.783Z,20.73
2018-08-28T19:13:36.042Z,22.37
2018-08-28T19:16:04.305Z,15.47
2018-08-28T19:18:32.577Z,21.77
2018-08-28T19:45:36.501Z,20.23
2018-08-28T19:48:04.781Z,21.93
2018-08-28T19:50:33.041Z,21.23
2018-08-28T19:53:01.308Z,17.20
2018-08-28T19:55:29.586Z,17.50
2018-08-28T19:57:57.873Z,21.03
2018-08-28T20:00:26.130Z,17.17
2018-08-28T20:02:54.409Z,20.97
2018-08-28T20:05:22.657Z,18.53
2018-08-28T20:07:50.946Z,16.33
2018-08-28T20:10:19.202Z,17.23
2018-08-28T20:12:47.461Z,21.70
2018-08-28T20:15:15.734Z,15.53
2018-08-28T20:17:44.000Z,18.40
2018-08-28T20:20:12.257Z,19.00
2018-08-28T20:22:40.549Z,22.03
2018-08-28T20:25:08.804Z,21.83
2018-08-28T20:27:37.072Z,27.53
2018-08-28T20:30:05.406Z,16.53
2018-08-28T20:32:33.674Z,17.17
2018-08-28T20:35:01.921Z,20.40
2018-08-28T20:37:30.288Z,16.50
2018-08-28T20:39:58.441Z,22.57
2018-08-28T20:42:26.693Z,17.30
2018-08-28T20:44:54.932Z,18.27
2018-08-28T20:47:23.193Z,24.50
2018-08-28T20:49:51.449Z,20.60
2018-08-28T20:52:19.725Z,17.07
2018-08-28T20:54:48.001Z,23.27
2018-08-28T20:57:16.262Z,21.80
2018-08-28T20:59:44.513Z,16.70
2018-08-28T21:02:12.781Z,19.40
2018-08-28T21:04:41.020Z,15.57
2018-08-28T21:07:09.274Z,22.80
2018-08-28T21:09:37.524Z,18.00
2018-08-28T21:12:05.796Z,18.33
2018-08-28T21:19:29.248Z,20.67
2018-08-28T21:21:57.534Z,18.20
2018-08-28T21:24:25.806Z,19.00
2018-08-28T21:26:54.069Z,16.62
2018-08-28T21:29:22.367Z,13.20
2018-08-28T21:31:50.596Z,26.13
2018-08-28T21:34:18.864Z,20.20
2018-08-28T21:36:47.124Z,21.93
2018-08-28T21:39:15.376Z,16.13
2018-08-28T21:41:43.624Z,15.53
2018-08-28T21:44:12.082Z,15.60
2018-08-28T21:46:40.377Z,18.97
2018-08-28T21:49:08.640Z,19.83
2018-08-28T21:51:36.976Z,15.40
2018-08-28T21:54:05.340Z,19.30
2018-08-28T21:56:33.634Z,18.30
2018-08-28T21:59:01.889Z,18.23
2018-08-28T22:01:30.145Z,19.80
2018-08-28T22:03:58.408Z,19.80
2018-08-28T22:06:32.056Z,15.20
2018-08-28T22:09:00.302Z,13.93
2018-08-28T22:11:28.556Z,16.53
2018-08-28T22:13:56.815Z,18.13
2018-08-28T22:16:25.065Z,13.07
2018-08-28T22:18:53.328Z,18.93
2018-08-28T22:21:21.537Z,14.30
2018-08-28T22:23:49.756Z,14.50
2018-08-28T22:26:17.989Z,24.40
2018-08-28T22:28:46.212Z,18.90
2018-08-28T22:31:14.444Z,16.47
2018-08-28T22:33:42.666Z,18.40
2018-08-28T22:36:10.923Z,16.70
2018-08-28T22:38:39.097Z,17.50
2018-08-28T22:41:07.363Z,17.33
2018-08-28T22:43:35.598Z,18.27
2018-08-28T22:46:03.813Z,21.23
2018-08-28T22:48:32.069Z,21.97
2018-08-28T22:51:00.285Z,20.33
2018-08-28T22:53:28.500Z,17.53
2018-08-28T22:55:56.735Z,17.20
2018-08-28T22:58:24.940Z,16.93
2018-08-28T23:00:53.161Z,15.30
2018-08-28T23:03:21.404Z,17.50
2018-08-28T23:05:49.614Z,18.90
2018-08-28T23:08:17.827Z,18.83
2018-08-28T23:10:46.037Z,21.40
2018-08-28T23:13:14.252Z,17.93
2018-08-28T23:15:42.468Z,23.00
2018-08-28T23:18:10.671Z,15.30
2018-08-28T23:20:38.889Z,26.87
2018-08-28T23:23:07.175Z,18.00
2018-08-28T23:25:35.386Z,16.30
2018-08-28T23:28:03.596Z,15.37
2018-08-28T23:30:31.809Z,16.03
2018-08-28T23:33:00.012Z,16.73
2018-08-28T23:35:28.270Z,16.90
2018-08-28T23:37:56.444Z,15.20
2018-08-28T23:40:24.664Z,17.20
2018-08-28T23:42:52.906Z,22.33
2018-08-28T23:45:21.134Z,21.73
2018-08-28T23:47:49.429Z,29.23
2018-08-28T23:50:17.648Z,21.57
2018-08-28T23:52:45.861Z,13.30
2018-08-28T23:55:14.074Z,17.30
2018-08-28T23:57:42.297Z,15.70
